Aérodrome :
LOGIN :

S'inscrire | Disclaimer

   EN    FR    IT 

 










Légende :    VFR   VFR Marginal   IFR   IFR Intensif   IFR Très Intensif
Visi : 
Plafond : 
>= 8 km
>= 3000ft
5 à 8 km
1000 à 3000 ft
1500m à 5 km
500 à 1000 ft
800 à 1500m
200 à 500 ft
< 800m
< 200 ft
Symboles :   Orages  Brouillard  Fortes neiges  Fortes précipitations  Vent > 20 kt
SIGMETs :   Divers  Orages  Givrage  Turbulence  Onde Orograph.  Cendres Volcan.







- Altitude de l'aérodrome : 622 ft
- Code IATA : BRS
- Voir les cartes d'approche


EGGD - Bristol Int.

DERNIER METAR :
  • 240920Z VRB03KT 9999 SCT011 18/15 Q1027

METARs EXPIRÉS :
  • 240850Z AUTO VRB03KT 9999 BKN011 17/14 Q1027
  • 240820Z AUTO 32004KT 230V040 9999 BKN006 15/14 Q1027
  • 240750Z AUTO 24004KT 210V280 9999 BKN003 14/14 Q1027
  • 240720Z AUTO VRB03KT 8000 BKN002 14/14 Q1027
  • 240650Z AUTO 26004KT 220V290 4900 BR OVC001 13/13 Q1026

TAF AMD TAF EGGD
Valide du 24 à 08h jusqu'au 25 à 06h UTC


240844Z 2408/2506 VRB04KT 9999 BKN006
BECMG 2408/2410 FEW040
PROB30 2408/2410 5000 BR
ATIS : +44 1275 473 666
Pas de NOTAMs connus pour ce terrain.



MET'MAP, la Météo Aéronautique d'un coup d'oeil ! - Copyright ORBIFLY Décembre 2007 - Disclaimer

ORBIFLY MET'MAP TEAM :

Programmation & Développement : Alexandra Zaïnal
Conception & Développement : Baudouin d'Aumeries
Co-Programmation & Développement : Marc-Olivier Méhu
Soutien technique & logistique : Manuel Goepfert

Contact : metmap@orbifly.com




SOURCES & CREDITS :

   NOAA